Time;durP1;ratioP1;P1;durP2;ratioP2;P2;SDS_P1;SDS_P2;PMS_P1;PMS_P2;Temp;Humidity;BMP_temperature;BMP_pressure;BME280_temperature;BME280_humidity;BME280_pressure;Samples;Min_cycle;Max_cycle;Signal;HPM_P1;HPM_P2
2022/12/23 00:00:40;;;;;;;0.90;0.90;;;;;;;-0.81;100.00;98504.47;4935550;29;20056;-84
2022/12/23 00:03:10;;;;;;;0.80;0.80;;;;;;;-0.81;100.00;98504.47;4934285;29;20531;-85
2022/12/23 00:05:38;;;;;;;0.90;0.90;;;;;;;-0.82;100.00;98508.94;4935035;29;20111;-85
2022/12/23 00:08:06;;;;;;;0.95;0.95;;;;;;;-0.81;100.00;98507.94;4934445;29;20142;-86
2022/12/23 00:10:36;;;;;;;0.85;0.85;;;;;;;-0.77;100.00;98508.41;4935873;29;20051;-84
2022/12/23 00:16:08;;;;;;;0.93;0.93;;;;;;;-0.76;100.00;98502.06;4894979;29;20052;-85
2022/12/23 00:18:36;;;;;;;0.90;0.90;;;;;;;-0.74;100.00;98502.72;4879609;29;20084;-85
2022/12/23 00:21:09;;;;;;;0.85;0.85;;;;;;;-0.70;100.00;98509.31;4879760;29;20139;-85
2022/12/23 00:23:38;;;;;;;0.85;0.85;;;;;;;-0.78;100.00;98507.56;4879871;29;20053;-85
2022/12/23 00:26:06;;;;;;;0.90;0.90;;;;;;;-0.83;100.00;98506.50;4879699;29;20456;-85
2022/12/23 00:28:33;;;;;;;0.90;0.90;;;;;;;-0.82;100.00;98508.13;4880015;29;20053;-85
2022/12/23 00:31:03;;;;;;;1.02;1.02;;;;;;;-0.78;100.00;98506.75;4879575;29;20570;-85
2022/12/23 00:33:32;;;;;;;1.00;1.00;;;;;;;-0.79;100.00;98507.75;4895100;29;20143;-85
2022/12/23 00:35:59;;;;;;;0.93;0.93;;;;;;;-0.80;100.00;98511.41;4894837;29;20053;-86
2022/12/23 00:44:03;;;;;;;0.93;0.93;;;;;;;-0.81;100.00;98500.00;4895050;29;20181;-86
2022/12/23 00:46:30;;;;;;;0.90;0.90;;;;;;;-0.82;100.00;98487.75;4894985;29;20135;-85
2022/12/23 00:51:43;;;;;;;0.90;0.90;;;;;;;-0.84;100.00;98479.16;4914907;29;20055;-86
2022/12/23 00:54:10;;;;;;;1.30;1.20;;;;;;;-0.82;100.00;98481.63;4934669;29;20140;-84
2022/12/23 00:56:37;;;;;;;1.00;1.00;;;;;;;-0.80;100.00;98484.91;4935211;29;20087;-85
2022/12/23 00:59:05;;;;;;;1.00;1.00;;;;;;;-0.81;100.00;98486.75;4934767;29;20139;-84
2022/12/23 01:07:05;;;;;;;1.00;1.00;;;;;;;-0.83;100.00;98464.09;4934557;29;20079;-85
2022/12/23 01:09:33;;;;;;;0.98;0.98;;;;;;;-0.77;100.00;98477.41;4934395;29;20146;-86
2022/12/23 01:12:00;;;;;;;1.00;1.00;;;;;;;-0.73;100.00;98472.59;4933321;29;20106;-85
2022/12/23 01:14:27;;;;;;;0.90;0.90;;;;;;;-0.75;100.00;98442.78;4933374;29;20067;-85
2022/12/23 01:16:55;;;;;;;1.00;1.00;;;;;;;-0.80;100.00;98469.03;4934692;29;20151;-85
2022/12/23 01:19:22;;;;;;;0.98;0.98;;;;;;;-0.76;100.00;98460.53;4936481;29;20048;-85
2022/12/23 01:21:49;;;;;;;1.20;1.10;;;;;;;-0.76;100.00;98472.94;4938284;29;20142;-85
2022/12/23 01:24:16;;;;;;;0.80;0.80;;;;;;;-0.79;100.00;98470.66;4937359;29;20396;-84
2022/12/23 01:26:43;;;;;;;1.00;1.00;;;;;;;-0.84;100.00;98476.50;4935782;29;20646;-86
2022/12/23 01:29:10;;;;;;;1.00;1.00;;;;;;;-0.80;100.00;98475.13;4933244;29;20063;-85
2022/12/23 01:31:39;;;;;;;0.93;0.93;;;;;;;-0.82;100.00;98471.03;4934559;29;20048;-85
2022/12/23 01:34:06;;;;;;;1.00;1.00;;;;;;;-0.83;100.00;98472.03;4934258;29;20395;-85
2022/12/23 01:36:34;;;;;;;0.98;0.98;;;;;;;-0.87;100.00;98460.97;4934310;29;20392;-85
2022/12/23 01:39:01;;;;;;;0.90;0.90;;;;;;;-0.93;100.00;98453.78;4932909;29;20079;-85
2022/12/23 01:44:46;;;;;;;0.90;0.90;;;;;;;-0.88;100.00;98457.50;4933301;29;20479;-85
2022/12/23 01:47:49;;;;;;;1.23;1.15;;;;;;;-0.83;100.00;98458.81;4932770;29;20252;-85
2022/12/23 01:50:37;;;;;;;0.90;0.90;;;;;;;-0.84;100.00;98459.78;4874452;29;20057;-85
2022/12/23 01:53:14;;;;;;;1.00;1.00;;;;;;;-0.82;100.00;98468.38;4874789;29;20060;-84
2022/12/23 01:55:54;;;;;;;0.90;0.90;;;;;;;-0.84;100.00;98457.94;4859436;29;20139;-85
2022/12/23 01:58:31;;;;;;;0.80;0.80;;;;;;;-0.88;100.00;98459.34;4874640;29;20436;-85
2022/12/23 02:03:45;;;;;;;1.10;1.10;;;;;;;-0.93;100.00;98456.44;4861952;29;20053;-85
2022/12/23 02:09:32;;;;;;;1.08;1.08;;;;;;;-0.91;100.00;98459.72;4848217;29;20529;-84
2022/12/23 02:12:16;;;;;;;1.00;1.00;;;;;;;-0.86;100.00;98457.34;4837690;29;20499;-85
2022/12/23 02:17:59;;;;;;;1.00;1.00;;;;;;;-0.88;100.00;98430.22;4837603;29;20058;-85
2022/12/23 02:21:04;;;;;;;0.90;0.90;;;;;;;-0.95;100.00;98431.94;4837180;29;20591;-85
2022/12/23 02:23:46;;;;;;;0.95;0.95;;;;;;;-0.96;100.00;98441.72;4837689;29;20510;-84
2022/12/23 02:26:32;;;;;;;1.10;1.10;;;;;;;-0.97;100.00;98441.91;4860624;29;20159;-85
2022/12/23 02:29:17;;;;;;;1.02;1.02;;;;;;;-0.95;100.00;98446.00;4874441;29;20143;-85
2022/12/23 02:32:12;;;;;;;1.10;1.10;;;;;;;-0.95;100.00;98432.75;4874442;29;20077;-84
2022/12/23 02:34:45;;;;;;;0.90;0.90;;;;;;;-0.93;100.00;98435.25;4874505;29;20109;-85
2022/12/23 02:37:35;;;;;;;0.90;0.90;;;;;;;-0.88;100.00;98436.31;4874160;29;20069;-85
2022/12/23 02:40:02;;;;;;;0.82;0.82;;;;;;;-0.87;100.00;98440.59;4874364;29;20057;-84
2022/12/23 02:42:45;;;;;;;1.00;1.00;;;;;;;-0.87;100.00;98430.00;4874294;29;20241;-84
2022/12/23 02:45:22;;;;;;;0.82;0.82;;;;;;;-0.85;100.00;98434.31;4914086;29;20521;-85
2022/12/23 02:48:03;;;;;;;0.90;0.90;;;;;;;-0.87;100.00;98419.41;4916607;29;20087;-85
2022/12/23 02:50:33;;;;;;;0.80;0.80;;;;;;;-0.92;100.00;98416.50;4931982;29;20052;-84
2022/12/23 02:53:06;;;;;;;0.80;0.80;;;;;;;-0.90;100.00;98421.63;4936301;29;20079;-86
2022/12/23 02:55:35;;;;;;;0.90;0.90;;;;;;;-0.90;100.00;98421.63;4935930;29;20051;-86
2022/12/23 02:58:07;;;;;;;0.90;0.90;;;;;;;-0.95;100.00;98429.28;4935941;29;20131;-85
2022/12/23 03:00:35;;;;;;;0.82;0.82;;;;;;;-0.98;100.00;98422.53;4935394;29;20120;-85
2022/12/23 03:03:02;;;;;;;1.00;1.00;;;;;;;-0.99;100.00;98435.97;4937105;29;20058;-85
2022/12/23 03:05:40;;;;;;;0.98;0.98;;;;;;;-0.97;100.00;98429.47;4936683;29;20055;-85
2022/12/23 03:08:19;;;;;;;0.90;0.90;;;;;;;-0.94;100.00;98431.78;4935541;29;20083;-85
2022/12/23 03:11:00;;;;;;;0.70;0.70;;;;;;;-0.93;100.00;98425.47;4905751;29;20110;-84
2022/12/23 03:13:54;;;;;;;0.90;0.90;;;;;;;-0.92;100.00;98432.38;4924229;29;20083;-84
2022/12/23 03:16:24;;;;;;;0.90;0.90;;;;;;;-0.92;100.00;98442.16;4936927;29;20059;-84
2022/12/23 03:19:03;;;;;;;0.80;0.80;;;;;;;-0.92;100.00;98444.81;4936004;29;20442;-85
2022/12/23 03:21:38;;;;;;;0.98;0.98;;;;;;;-0.96;100.00;98443.53;4937189;29;20071;-85
2022/12/23 03:24:14;;;;;;;1.00;1.00;;;;;;;-0.93;100.00;98443.19;4936004;29;20056;-84
2022/12/23 03:26:51;;;;;;;0.80;0.80;;;;;;;-0.92;100.00;98450.94;4935387;29;20423;-85
2022/12/23 03:29:47;;;;;;;0.90;0.90;;;;;;;-0.88;100.00;98449.56;4934865;29;20051;-85
2022/12/23 03:32:15;;;;;;;1.00;1.00;;;;;;;-0.87;100.00;98448.53;4936391;29;20051;-85
2022/12/23 03:34:46;;;;;;;0.90;0.90;;;;;;;-0.84;100.00;98452.66;4935623;29;20051;-84
2022/12/23 03:37:15;;;;;;;0.90;0.90;;;;;;;-0.91;100.00;98444.66;4935367;29;20055;-84
2022/12/23 03:39:51;;;;;;;1.00;1.00;;;;;;;-0.90;100.00;98448.91;4935249;29;20391;-84
2022/12/23 03:42:26;;;;;;;0.90;0.90;;;;;;;-0.91;100.00;98441.19;4919317;29;20155;-84
2022/12/23 03:44:54;;;;;;;1.00;1.00;;;;;;;-0.98;100.00;98443.72;4935098;29;20047;-84
2022/12/23 03:47:45;;;;;;;0.90;0.90;;;;;;;-0.96;100.00;98449.66;4921788;29;20063;-85
2022/12/23 03:50:14;;;;;;;0.85;0.85;;;;;;;-0.93;100.00;98441.34;4934944;29;20043;-85
2022/12/23 03:52:58;;;;;;;0.90;0.90;;;;;;;-0.91;100.00;98447.28;4935172;29;20153;-84
2022/12/23 03:55:39;;;;;;;0.90;0.90;;;;;;;-0.85;100.00;98445.72;4902996;29;20103;-84
2022/12/23 03:58:18;;;;;;;0.90;0.90;;;;;;;-0.82;100.00;98444.53;4919069;29;20105;-85
2022/12/23 04:01:00;;;;;;;0.90;0.90;;;;;;;-0.84;100.00;98449.19;4935759;29;20107;-85
2022/12/23 04:03:31;;;;;;;0.90;0.90;;;;;;;-0.88;100.00;98443.44;4933938;29;20392;-85
2022/12/23 04:05:59;;;;;;;0.70;0.70;;;;;;;-0.88;100.00;98446.09;4918576;29;20052;-85
2022/12/23 04:08:32;;;;;;;0.90;0.90;;;;;;;-0.82;100.00;98452.47;4934191;29;20079;-85
2022/12/23 04:11:00;;;;;;;0.90;0.90;;;;;;;-0.82;100.00;98455.13;4934761;29;20078;-84
2022/12/23 04:13:28;;;;;;;0.90;0.90;;;;;;;-0.83;100.00;98445.56;4941597;29;20055;-84
2022/12/23 04:15:57;;;;;;;1.00;1.00;;;;;;;-0.83;100.00;98443.72;4948250;29;20051;-85
2022/12/23 04:18:25;;;;;;;1.00;1.00;;;;;;;-0.85;100.00;98436.97;4955555;29;20055;-84
2022/12/23 04:20:51;;;;;;;1.00;1.00;;;;;;;-0.80;100.00;98431.94;4950870;28;20162;-87
2022/12/23 04:23:19;;;;;;;0.88;0.88;;;;;;;-0.81;100.00;98431.13;4942594;29;20506;-86
2022/12/23 04:25:45;;;;;;;0.82;0.82;;;;;;;-0.79;100.00;98433.56;4944286;29;20491;-86
2022/12/23 04:28:12;;;;;;;0.88;0.88;;;;;;;-0.75;100.00;98433.00;4933976;29;20055;-89
2022/12/23 04:30:39;;;;;;;0.85;0.85;;;;;;;-0.73;100.00;98427.53;4935703;29;20507;-88
2022/12/23 04:33:09;;;;;;;1.00;1.00;;;;;;;-0.72;100.00;98434.47;4936499;29;20087;-87
2022/12/23 04:35:36;;;;;;;0.90;0.90;;;;;;;-0.77;100.00;98434.19;4935815;29;20062;-86
2022/12/23 04:38:04;;;;;;;0.90;0.90;;;;;;;-0.78;100.00;98440.53;4947546;29;20091;-86
2022/12/23 04:40:31;;;;;;;0.90;0.90;;;;;;;-0.77;100.00;98440.31;4585555;29;10000475;-85
2022/12/23 04:42:57;;;;;;;0.85;0.85;;;;;;;-0.80;100.00;98431.94;4940208;29;20131;-84
2022/12/23 04:45:24;;;;;;;0.90;0.90;;;;;;;-0.77;100.00;98437.66;4923202;29;20130;-85
2022/12/23 04:47:53;;;;;;;0.88;0.88;;;;;;;-0.74;100.00;98441.78;4949051;29;20051;-84
2022/12/23 04:50:20;;;;;;;0.80;0.80;;;;;;;-0.80;100.00;98435.38;4949762;28;20105;-84
2022/12/23 04:52:47;;;;;;;0.90;0.90;;;;;;;-0.77;100.00;98436.84;4953624;29;20059;-86
2022/12/23 04:55:14;;;;;;;1.00;1.00;;;;;;;-0.77;100.00;98435.00;4942596;29;20098;-85
2022/12/23 04:57:41;;;;;;;0.90;0.90;;;;;;;-0.74;100.00;98434.63;4952323;29;20396;-84
2022/12/23 05:00:09;;;;;;;0.88;0.88;;;;;;;-0.73;100.00;98438.94;4944078;29;20502;-83
2022/12/23 05:02:36;;;;;;;0.90;0.90;;;;;;;-0.73;100.00;98428.34;4941136;29;20151;-84
2022/12/23 05:05:07;;;;;;;0.82;0.82;;;;;;;-0.72;100.00;98419.38;4951517;29;20470;-84
2022/12/23 05:07:37;;;;;;;0.90;0.90;;;;;;;-0.76;100.00;98414.63;4902935;29;20052;-86
2022/12/23 05:10:04;;;;;;;0.90;0.90;;;;;;;-0.70;100.00;98421.84;4923861;29;20055;-85
2022/12/23 05:12:31;;;;;;;0.80;0.80;;;;;;;-0.68;100.00;98430.44;4933430;29;20099;-86
2022/12/23 05:14:58;;;;;;;0.80;0.80;;;;;;;-0.64;100.00;98425.59;4941586;29;20520;-81
2022/12/23 05:17:25;;;;;;;0.90;0.90;;;;;;;-0.67;100.00;98416.19;4951896;28;20163;-82
2022/12/23 05:19:52;;;;;;;0.90;0.90;;;;;;;-0.67;100.00;98426.78;4952181;28;20162;-82
2022/12/23 05:22:19;;;;;;;0.80;0.80;;;;;;;-0.64;100.00;98420.28;4953321;29;20514;-82
2022/12/23 05:25:01;;;;;;;0.90;0.90;;;;;;;-0.67;100.00;98432.91;4954235;29;20102;-82
2022/12/23 05:27:29;;;;;;;0.90;0.90;;;;;;;-0.68;100.00;98425.16;4952006;29;20092;-83
2022/12/23 05:29:56;;;;;;;0.93;0.93;;;;;;;-0.68;100.00;98420.66;4952937;28;20051;-83
2022/12/23 05:32:23;;;;;;;1.00;1.00;;;;;;;-0.66;100.00;98423.94;4952881;29;20455;-82
2022/12/23 05:34:50;;;;;;;1.00;1.00;;;;;;;-0.63;100.00;98422.75;4951634;29;20081;-81
2022/12/23 05:37:17;;;;;;;0.90;0.90;;;;;;;-0.65;100.00;98424.75;4953084;28;20062;-82
2022/12/23 05:39:44;;;;;;;0.90;0.90;;;;;;;-0.71;100.00;98409.59;4951389;29;20053;-82
2022/12/23 05:42:11;;;;;;;0.90;0.90;;;;;;;-0.72;100.00;98410.63;4952289;28;20074;-82
2022/12/23 05:44:38;;;;;;;0.90;0.90;;;;;;;-0.69;100.00;98413.69;4951490;29;20138;-81
2022/12/23 05:47:05;;;;;;;0.95;0.95;;;;;;;-0.68;100.00;98409.25;4952873;29;20557;-81
2022/12/23 05:49:32;;;;;;;0.90;0.90;;;;;;;-0.72;100.00;98402.66;4952590;28;20055;-82
2022/12/23 05:51:59;;;;;;;0.90;0.90;;;;;;;-0.69;100.00;98411.06;4952524;29;20138;-82
2022/12/23 05:54:26;;;;;;;0.88;0.88;;;;;;;-0.69;100.00;98404.94;4951040;29;20088;-82
2022/12/23 05:57:07;;;;;;;1.00;1.00;;;;;;;-0.70;100.00;98403.31;4950876;29;20058;-82
2022/12/23 05:59:34;;;;;;;0.80;0.80;;;;;;;-0.63;100.00;98406.00;4935773;29;20063;-82
2022/12/23 06:02:01;;;;;;;0.90;0.90;;;;;;;-0.65;100.00;98395.63;4953596;29;20404;-82
2022/12/23 06:04:28;;;;;;;1.10;1.10;;;;;;;-0.70;100.00;98400.66;4953183;28;20051;-83
2022/12/23 06:06:55;;;;;;;1.00;1.00;;;;;;;-0.67;100.00;98397.63;4953629;28;20651;-84
2022/12/23 06:09:22;;;;;;;0.90;0.90;;;;;;;-0.66;100.00;98392.16;4951749;29;20129;-82
2022/12/23 06:11:49;;;;;;;1.00;1.00;;;;;;;-0.72;100.00;98390.22;4952843;29;20078;-82
2022/12/23 06:14:16;;;;;;;0.80;0.80;;;;;;;-0.77;100.00;98370.59;4951506;29;20245;-82
2022/12/23 06:16:50;;;;;;;1.00;1.00;;;;;;;-0.79;100.00;98391.16;4952859;28;20102;-82
2022/12/23 06:19:17;;;;;;;0.90;0.90;;;;;;;-0.77;100.00;98389.16;4950915;29;20051;-82
2022/12/23 06:21:44;;;;;;;0.90;0.90;;;;;;;-0.74;100.00;98394.06;4952647;28;20051;-82
2022/12/23 06:24:11;;;;;;;1.00;1.00;;;;;;;-0.71;100.00;98391.03;4952690;29;20059;-82
2022/12/23 06:26:38;;;;;;;0.90;0.90;;;;;;;-0.67;100.00;98387.84;4951489;29;20043;-82
2022/12/23 06:29:05;;;;;;;0.93;0.93;;;;;;;-0.67;100.00;98387.84;4951941;28;20526;-81
2022/12/23 06:31:32;;;;;;;1.00;1.00;;;;;;;-0.69;100.00;98397.78;4952208;29;20052;-81
2022/12/23 06:33:59;;;;;;;0.90;0.90;;;;;;;-0.64;100.00;98407.03;4952580;28;20154;-83
2022/12/23 06:36:26;;;;;;;0.90;0.90;;;;;;;-0.63;100.00;98401.56;4952205;28;20138;-82
2022/12/23 06:38:54;;;;;;;0.90;0.90;;;;;;;-0.63;100.00;98406.84;4952342;28;20055;-81
2022/12/23 06:41:20;;;;;;;0.68;0.68;;;;;;;-0.64;100.00;98407.84;4951770;29;20043;-82
2022/12/23 06:43:48;;;;;;;0.93;0.93;;;;;;;-0.63;100.00;98390.09;4952016;29;20134;-81
2022/12/23 06:46:20;;;;;;;1.00;1.00;;;;;;;-0.59;100.00;98397.50;4951569;28;20055;-81
2022/12/23 06:48:47;;;;;;;0.90;0.90;;;;;;;-0.60;100.00;98398.53;4951882;28;20853;-82
2022/12/23 06:51:14;;;;;;;1.00;1.00;;;;;;;-0.60;100.00;98395.88;4951737;29;20054;-82
2022/12/23 06:53:41;;;;;;;0.80;0.80;;;;;;;-0.59;100.00;98389.56;4951749;29;20054;-82
2022/12/23 06:56:08;;;;;;;1.00;1.00;;;;;;;-0.57;100.00;98400.78;4953235;28;20047;-83
2022/12/23 06:58:35;;;;;;;0.90;0.90;;;;;;;-0.56;100.00;98399.78;4952591;28;20055;-83
2022/12/23 07:01:02;;;;;;;0.90;0.90;;;;;;;-0.55;100.00;98392.66;4951991;29;20163;-82
2022/12/23 07:03:46;;;;;;;1.00;1.00;;;;;;;-0.60;100.00;98400.34;4952271;28;20477;-82
2022/12/23 07:06:13;;;;;;;0.80;0.80;;;;;;;-0.56;100.00;98397.13;4950702;29;20075;-82
2022/12/23 07:08:40;;;;;;;1.00;1.00;;;;;;;-0.53;100.00;98388.81;4951684;29;20054;-82
2022/12/23 07:11:07;;;;;;;0.90;0.90;;;;;;;-0.55;100.00;98392.66;4950615;29;20427;-82
2022/12/23 07:13:34;;;;;;;0.80;0.80;;;;;;;-0.52;100.00;98398.41;4951739;28;20047;-83
2022/12/23 07:16:06;;;;;;;0.90;0.90;;;;;;;-0.51;100.00;98388.59;4951885;28;20082;-83
2022/12/23 07:18:34;;;;;;;0.90;0.90;;;;;;;-0.50;100.00;98390.25;4951506;28;20578;-82
2022/12/23 07:21:03;;;;;;;0.85;0.85;;;;;;;-0.50;100.00;98388.44;4951630;29;20518;-83
2022/12/23 07:23:30;;;;;;;0.80;0.80;;;;;;;-0.52;100.00;98379.84;4951707;28;20046;-82
2022/12/23 07:25:57;;;;;;;0.90;0.90;;;;;;;-0.48;100.00;98383.78;4950687;29;20047;-82
2022/12/23 07:28:24;;;;;;;1.00;1.00;;;;;;;-0.48;100.00;98390.88;4952335;29;20173;-83
2022/12/23 07:30:51;;;;;;;1.00;1.00;;;;;;;-0.52;100.00;98384.31;4951954;28;20442;-82
2022/12/23 07:33:18;;;;;;;0.90;0.90;;;;;;;-0.51;100.00;98376.16;4950402;29;20075;-82
2022/12/23 07:35:45;;;;;;;0.70;0.70;;;;;;;-0.44;100.00;98379.72;4952024;29;20134;-81
2022/12/23 07:38:12;;;;;;;0.90;0.90;;;;;;;-0.45;100.00;98367.47;4951906;29;20133;-82
2022/12/23 07:40:39;;;;;;;0.90;0.90;;;;;;;-0.35;100.00;98369.81;4950855;28;20051;-82
2022/12/23 07:43:06;;;;;;;0.90;0.90;;;;;;;-0.31;100.00;98362.28;4938021;29;20055;-82
2022/12/23 07:45:33;;;;;;;0.98;0.98;;;;;;;-0.28;100.00;98359.25;4953705;29;20043;-82
2022/12/23 07:48:00;;;;;;;0.90;0.90;;;;;;;-0.31;100.00;98362.28;4955136;29;20098;-83
2022/12/23 07:50:27;;;;;;;0.95;0.95;;;;;;;-0.25;100.00;98356.25;4953789;29;20077;-82
2022/12/23 07:52:56;;;;;;;0.90;0.90;;;;;;;-0.28;100.00;98362.75;4954050;29;20055;-83
2022/12/23 07:55:23;;;;;;;0.90;0.90;;;;;;;-0.30;100.00;98361.28;4953404;29;20130;-81
2022/12/23 07:57:51;;;;;;;1.00;1.00;;;;;;;-0.26;100.00;98359.88;4954965;28;20544;-81
2022/12/23 08:00:19;;;;;;;1.00;1.00;;;;;;;-0.26;100.00;98359.88;4954348;28;20055;-82
2022/12/23 08:02:47;;;;;;;1.00;1.00;;;;;;;-0.31;100.00;98363.09;4954759;28;20062;-84
2022/12/23 08:05:15;;;;;;;0.88;0.88;;;;;;;-0.30;100.00;98363.94;4956726;28;20047;-83
2022/12/23 08:07:44;;;;;;;0.98;0.98;;;;;;;-0.28;100.00;98356.59;4956911;28;20506;-80
2022/12/23 08:10:11;;;;;;;0.80;0.80;;;;;;;-0.32;100.00;98350.88;4955057;28;20395;-82
2022/12/23 08:12:38;;;;;;;0.93;0.93;;;;;;;-0.31;100.00;98349.84;4954673;28;20502;-82
2022/12/23 08:15:06;;;;;;;0.85;0.85;;;;;;;-0.30;100.00;98366.59;4954438;28;20079;-82
2022/12/23 08:17:33;;;;;;;0.90;0.90;;;;;;;-0.33;100.00;98359.00;4955092;28;20051;-82
2022/12/23 08:20:00;;;;;;;0.90;0.90;;;;;;;-0.31;100.00;98362.28;4938470;29;20080;-82
2022/12/23 08:22:30;;;;;;;0.90;0.90;;;;;;;-0.35;100.00;98363.69;4956623;28;20126;-82
2022/12/23 08:24:58;;;;;;;0.90;0.90;;;;;;;-0.35;100.00;98366.34;4956887;28;20047;-82
2022/12/23 08:27:25;;;;;;;0.80;0.80;;;;;;;-0.36;100.00;98364.69;4957023;28;20139;-83
2022/12/23 08:29:53;;;;;;;0.90;0.90;;;;;;;-0.35;100.00;98361.88;4954232;29;20502;-82
2022/12/23 08:32:20;;;;;;;0.80;0.80;;;;;;;-0.32;100.00;98358.81;4956101;29;20111;-82
2022/12/23 08:34:47;;;;;;;0.90;0.90;;;;;;;-0.30;100.00;98362.09;4955981;29;20510;-81
2022/12/23 08:37:14;;;;;;;1.00;1.00;;;;;;;-0.32;100.00;98355.34;4954334;28;20062;-83
2022/12/23 08:39:42;;;;;;;0.90;0.90;;;;;;;-0.29;100.00;98357.63;4955188;29;20054;-82
2022/12/23 08:42:09;;;;;;;0.90;0.90;;;;;;;-0.33;100.00;98351.91;4958322;28;20138;-82
2022/12/23 08:44:36;;;;;;;1.00;1.00;;;;;;;-0.26;100.00;98343.97;4956332;29;20055;-82
2022/12/23 08:47:03;;;;;;;0.90;0.90;;;;;;;-0.23;100.00;98336.47;4955532;28;20051;-83
2022/12/23 08:49:32;;;;;;;0.90;0.90;;;;;;;-0.20;100.00;98327.31;4956848;28;20043;-82
2022/12/23 08:51:59;;;;;;;0.88;0.88;;;;;;;-0.26;100.00;98325.41;4957129;28;20283;-81
2022/12/23 08:54:27;;;;;;;0.90;0.90;;;;;;;-0.20;100.00;98332.63;4956431;29;20043;-82
2022/12/23 08:56:54;;;;;;;1.00;1.00;;;;;;;-0.24;100.00;98334.81;4955758;29;20051;-82
2022/12/23 08:59:21;;;;;;;1.00;1.00;;;;;;;-0.19;100.00;98333.44;4953515;29;20521;-82
2022/12/23 09:01:48;;;;;;;0.90;0.90;;;;;;;-0.16;100.00;98328.56;4954609;29;20051;-82
2022/12/23 09:04:15;;;;;;;0.90;0.90;;;;;;;-0.12;100.00;98332.47;4956312;29;20146;-82
2022/12/23 09:06:44;;;;;;;0.90;0.90;;;;;;;-0.08;100.00;98331.06;4958887;28;20079;-82
2022/12/23 09:09:13;;;;;;;0.88;0.88;;;;;;;-0.08;100.00;98331.06;4954696;29;20081;-81
2022/12/23 09:11:40;;;;;;;0.95;0.95;;;;;;;-0.09;100.00;98332.09;4953712;29;20047;-82
2022/12/23 09:14:08;;;;;;;1.00;1.00;;;;;;;-0.09;100.00;98329.44;4953871;29;20077;-82
2022/12/23 09:16:36;;;;;;;1.00;1.00;;;;;;;-0.10;100.00;98322.50;4954117;28;20047;-82
2022/12/23 09:19:03;;;;;;;1.00;1.00;;;;;;;-0.12;100.00;98326.34;4953264;28;20101;-82
2022/12/23 09:21:42;;;;;;;0.93;0.93;;;;;;;-0.09;100.00;98324.13;4952928;28;20149;-82
2022/12/23 09:24:09;;;;;;;0.88;0.88;;;;;;;-0.09;100.00;98312.69;4953157;28;20063;-82
2022/12/23 09:26:36;;;;;;;1.00;1.00;;;;;;;-0.10;100.00;98311.03;4953081;29;20475;-83
2022/12/23 09:29:03;;;;;;;0.90;0.90;;;;;;;-0.08;100.00;98296.56;4954300;29;20085;-82
2022/12/23 09:31:31;;;;;;;0.90;0.90;;;;;;;-0.06;100.00;98299.03;4953663;28;20062;-81
2022/12/23 09:34:03;;;;;;;1.10;1.10;;;;;;;-0.11;100.00;98294.31;4953120;28;20074;-83
2022/12/23 09:36:30;;;;;;;0.90;0.90;;;;;;;-0.12;100.00;98291.88;4948084;29;20048;-82
2022/12/23 09:38:58;;;;;;;0.82;0.82;;;;;;;-0.20;100.00;98274.28;4946333;29;20078;-82
2022/12/23 09:41:41;;;;;;;0.90;0.90;;;;;;;-0.21;100.00;98280.56;4935141;29;20047;-82
2022/12/23 09:44:43;;;;;;;0.88;0.88;;;;;;;-0.21;100.00;98288.53;4935092;29;20052;-82
2022/12/23 09:47:14;;;;;;;0.90;0.90;;;;;;;-0.22;100.00;98268.34;4936446;29;20146;-81
2022/12/23 09:49:51;;;;;;;0.80;0.80;;;;;;;-0.16;100.00;98280.00;4704323;28;10001250;-82
2022/12/23 09:52:24;;;;;;;0.90;0.90;;;;;;;-0.13;100.00;98259.19;4935839;29;20891;-81
2022/12/23 09:54:54;;;;;;;0.90;0.90;;;;;;;-0.12;100.00;98260.84;4914058;29;20881;-82
2022/12/23 09:57:22;;;;;;;1.00;1.00;;;;;;;-0.11;100.00;98261.66;4946106;29;20137;-82
2022/12/23 09:59:58;;;;;;;0.90;0.90;;;;;;;-0.18;100.00;98258.97;4947070;29;20059;-84
2022/12/23 10:02:46;;;;;;;0.90;0.90;;;;;;;-0.26;100.00;98240.56;4931733;29;20140;-83
2022/12/23 10:05:20;;;;;;;0.90;0.90;;;;;;;-0.31;100.00;98243.78;4930075;29;20063;-82
2022/12/23 10:08:00;;;;;;;0.75;0.75;;;;;;;-0.30;100.00;98239.31;4932169;29;20142;-82
2022/12/23 10:10:55;;;;;;;0.90;0.90;;;;;;;-0.30;100.00;98231.38;4928623;29;20059;-85
2022/12/23 10:13:30;;;;;;;0.80;0.80;;;;;;;-0.32;100.00;98225.44;4928502;29;20047;-84
2022/12/23 10:15:58;;;;;;;;;;;;;;;-0.26;100.00;98227.28;4939115;28;20047;-84
2022/12/23 10:18:44;;;;;;;0.80;0.80;;;;;;;-0.22;100.00;98226.72;4931175;29;19926;-84
2022/12/23 10:21:23;;;;;;;0.80;0.80;;;;;;;-0.20;100.00;98221.22;4935501;29;20052;-83
2022/12/23 10:23:51;;;;;;;0.77;0.77;;;;;;;-0.25;100.00;98211.19;4936320;29;20145;-84
2022/12/23 10:26:23;;;;;;;0.85;0.85;;;;;;;-0.21;100.00;98214.28;4939779;29;20085;-84
2022/12/23 10:29:16;;;;;;;0.90;0.90;;;;;;;-0.16;100.00;98211.84;4949181;28;20047;-84
2022/12/23 10:32:07;;;;;;;0.90;0.90;;;;;;;-0.21;100.00;98198.34;4949269;28;20049;-83
2022/12/23 10:35:00;;;;;;;0.90;0.90;;;;;;;-0.23;100.00;98216.28;4948226;29;20055;-82
2022/12/23 10:37:47;;;;;;;;;;;;;;;-0.20;100.00;98225.69;4944273;28;20059;-83
2022/12/23 10:40:32;;;;;;;1.00;1.00;;;;;;;-0.28;100.00;98218.72;4945173;29;19926;-83
2022/12/23 10:43:17;;;;;;;1.02;1.02;;;;;;;-0.30;100.00;98200.34;4920552;29;20059;-83
2022/12/23 10:45:44;;;;;;;;;;;;;;;-0.31;100.00;98209.31;4943350;29;20108;-84
2022/12/23 10:48:48;;;;;;;0.80;0.80;;;;;;;-0.28;100.00;98214.25;4945281;29;19930;-83
2022/12/23 10:51:46;;;;;;;0.90;0.90;;;;;;;-0.25;100.00;98197.13;4942560;29;20051;-83
2022/12/23 10:54:18;;;;;;;0.75;0.75;;;;;;;-0.30;100.00;98210.97;4945795;29;20071;-81
2022/12/23 10:56:46;;;;;;;0.82;0.82;;;;;;;-0.23;100.00;98216.28;4949761;29;20153;-84
2022/12/23 10:59:15;;;;;;;0.98;0.98;;;;;;;-0.19;100.00;98222.03;4950622;29;20063;-83
2022/12/23 11:01:46;;;;;;;0.90;0.90;;;;;;;-0.16;100.00;98217.16;4950542;29;20150;-83
2022/12/23 11:04:17;;;;;;;1.00;1.00;;;;;;;-0.15;100.00;98208.22;4940457;29;20565;-83
2022/12/23 11:06:50;;;;;;;0.90;0.90;;;;;;;-0.15;100.00;98210.00;4934578;29;20052;-83
2022/12/23 11:09:44;;;;;;;0.90;0.90;;;;;;;-0.16;100.00;98193.28;4935788;29;20114;-83
2022/12/23 11:12:12;;;;;;;0.90;0.90;;;;;;;-0.22;100.00;98180.81;4911615;29;20048;-82
2022/12/23 11:14:40;;;;;;;0.98;0.98;;;;;;;-0.25;100.00;98194.47;4938832;28;20051;-84
2022/12/23 11:17:33;;;;;;;1.00;1.00;;;;;;;-0.23;100.00;98195.06;4954092;28;20047;-83
2022/12/23 11:20:10;;;;;;;0.90;0.90;;;;;;;-0.21;100.00;98206.31;4951771;29;20066;-84
2022/12/23 11:22:48;;;;;;;0.80;0.80;;;;;;;-0.16;100.00;98195.94;4944663;29;20459;-83
2022/12/23 11:25:26;;;;;;;0.90;0.90;;;;;;;-0.16;100.00;98205.72;4944832;29;20082;-83
2022/12/23 11:27:57;;;;;;;0.90;0.90;;;;;;;-0.14;100.00;98193.91;4940116;29;20055;-84
2022/12/23 11:30:25;;;;;;;1.00;1.00;;;;;;;-0.11;100.00;98200.66;4941037;29;20078;-83
2022/12/23 11:32:52;;;;;;;0.90;0.90;;;;;;;-0.14;100.00;98204.53;4938202;29;20048;-84
2022/12/23 11:35:28;;;;;;;0.88;0.88;;;;;;;-0.12;100.00;98202.50;4938981;29;20048;-86
2022/12/23 11:37:56;;;;;;;0.85;0.85;;;;;;;-0.12;100.00;98197.19;4936072;29;20052;-84
2022/12/23 11:40:26;;;;;;;1.00;1.00;;;;;;;-0.14;100.00;98201.88;4941097;29;20057;-86
2022/12/23 11:42:56;;;;;;;0.95;0.95;;;;;;;-0.12;100.00;98212.31;4954966;29;20057;-84
2022/12/23 11:45:28;;;;;;;0.90;0.90;;;;;;;-0.07;100.00;98212.53;4937794;29;20080;-84
2022/12/23 11:48:01;;;;;;;0.90;0.90;;;;;;;-0.09;100.00;98198.63;4939592;29;20059;-85
2022/12/23 11:50:37;;;;;;;0.80;0.80;;;;;;;-0.10;100.00;98216.41;4918965;29;20485;-86
2022/12/23 11:53:19;;;;;;;0.90;0.90;;;;;;;-0.08;100.00;98203.72;4944563;28;20059;-83
2022/12/23 11:56:00;;;;;;;1.00;1.00;;;;;;;-0.13;100.00;98202.69;4953984;29;20100;-84
2022/12/23 11:58:29;;;;;;;0.90;0.90;;;;;;;-0.18;100.00;98208.56;4930999;29;20052;-83
2022/12/23 12:00:58;;;;;;;0.77;0.77;;;;;;;-0.20;100.00;98205.31;4945354;29;20598;-84
2022/12/23 12:03:30;;;;;;;0.90;0.90;;;;;;;-0.21;100.00;98201.00;4939058;28;20058;-84
2022/12/23 12:06:01;;;;;;;0.90;0.90;;;;;;;-0.25;100.00;98199.78;4924876;29;20056;-83
2022/12/23 12:08:36;;;;;;;0.80;0.80;;;;;;;-0.31;100.00;98193.41;4939812;29;20078;-82
2022/12/23 12:11:04;;;;;;;;;;;;;;;-0.32;100.00;98201.56;4936067;29;20059;-82
2022/12/23 12:13:39;;;;;;;0.90;0.90;;;;;;;-0.34;100.00;98193.78;4918635;29;19978;-82
2022/12/23 12:16:23;;;;;;;1.00;1.00;;;;;;;-0.31;100.00;98190.75;4945674;29;20060;-83